createdAt,value
2022-08-25T00:02:36.659Z,18.10
2022-08-25T00:07:41.813Z,18.10
2022-08-25T00:12:45.213Z,18.10
2022-08-25T00:17:49.195Z,18.10
2022-08-25T00:22:54.034Z,18.10
2022-08-25T00:27:59.174Z,18.00
2022-08-25T00:33:02.778Z,17.90
2022-08-25T00:38:07.596Z,17.80
2022-08-25T00:43:11.381Z,17.80
2022-08-25T00:48:14.729Z,17.50
2022-08-25T00:53:19.608Z,17.30
2022-08-25T00:58:26.148Z,17.30
2022-08-25T01:03:35.934Z,17.40
2022-08-25T01:08:40.870Z,13.60
2022-08-25T01:13:50.681Z,17.50
2022-08-25T01:18:56.493Z,17.40
2022-08-25T01:24:01.845Z,17.40
2022-08-25T01:29:25.597Z,17.40
2022-08-25T01:34:31.646Z,17.30
2022-08-25T01:39:37.430Z,17.20
2022-08-25T01:44:43.771Z,17.20
2022-08-25T01:49:47.309Z,17.10
2022-08-25T01:54:52.273Z,17.00
2022-08-25T01:59:55.618Z,17.00
2022-08-25T02:04:58.951Z,17.10
2022-08-25T02:10:05.964Z,17.10
2022-08-25T02:15:10.502Z,17.10
2022-08-25T02:20:13.966Z,16.90
2022-08-25T02:25:18.854Z,17.00
2022-08-25T02:30:22.606Z,16.90
2022-08-25T02:35:26.199Z,16.90
2022-08-25T02:40:30.981Z,16.90
2022-08-25T02:45:34.365Z,17.00
2022-08-25T02:50:37.633Z,17.10
2022-08-25T02:55:42.317Z,17.00
2022-08-25T03:00:46.101Z,17.00
2022-08-25T03:05:50.145Z,17.00
2022-08-25T03:10:54.829Z,16.90
2022-08-25T03:15:58.133Z,16.80
2022-08-25T03:21:01.535Z,16.70
2022-08-25T03:26:24.205Z,16.80
2022-08-25T03:31:28.417Z,16.80
2022-08-25T03:36:32.096Z,16.90
2022-08-25T03:41:37.161Z,16.80
2022-08-25T03:46:43.806Z,16.90
2022-08-25T03:51:49.710Z,16.80
2022-08-25T03:56:54.941Z,16.80
2022-08-25T04:01:58.327Z,16.70
2022-08-25T04:07:01.658Z,16.70
2022-08-25T04:12:06.997Z,16.70
2022-08-25T04:17:10.328Z,16.80
2022-08-25T04:22:13.658Z,16.80
2022-08-25T04:27:18.365Z,16.90
2022-08-25T04:32:21.805Z,16.90
2022-08-25T04:37:25.159Z,16.90
2022-08-25T04:42:29.962Z,16.90
2022-08-25T04:47:37.408Z,16.80
2022-08-25T04:52:40.725Z,16.80
2022-08-25T04:57:45.396Z,16.90
2022-08-25T05:02:48.794Z,16.90
2022-08-25T05:07:52.099Z,16.90
2022-08-25T05:12:58.148Z,16.90
2022-08-25T05:18:01.517Z,16.90
2022-08-25T05:23:05.361Z,16.90
2022-08-25T05:28:14.859Z,17.10
2022-08-25T05:33:18.585Z,17.30
2022-08-25T05:38:22.270Z,17.40
2022-08-25T05:43:27.144Z,17.70
2022-08-25T05:48:30.452Z,18.30
2022-08-25T05:53:35.146Z,18.30
2022-08-25T05:58:40.095Z,18.20
2022-08-25T06:03:43.521Z,18.50
2022-08-25T06:08:46.879Z,18.90
2022-08-25T06:13:51.620Z,19.20
2022-08-25T06:18:55.511Z,19.10
2022-08-25T06:23:59.153Z,19.50
2022-08-25T06:29:05.084Z,19.50
2022-08-25T06:34:08.438Z,19.70
2022-08-25T06:39:12.383Z,19.90
2022-08-25T06:44:17.310Z,20.40
2022-08-25T06:49:21.664Z,20.90
2022-08-25T06:54:24.984Z,22.50
2022-08-25T06:59:32.473Z,23.30
2022-08-25T07:04:36.972Z,24.20
2022-08-25T07:09:40.457Z,25.30
2022-08-25T07:14:58.056Z,25.50
2022-08-25T07:20:08.057Z,26.30
2022-08-25T07:25:13.825Z,26.80
2022-08-25T07:30:20.421Z,27.70
2022-08-25T07:35:26.285Z,27.20
2022-08-25T07:40:32.095Z,27.70
2022-08-25T07:45:46.872Z,28.50
2022-08-25T07:50:53.423Z,28.70
2022-08-25T07:55:56.772Z,28.10
2022-08-25T08:01:02.683Z,28.60
2022-08-25T08:06:10.323Z,28.80
2022-08-25T08:11:17.306Z,29.20
2022-08-25T08:16:24.178Z,29.00
2022-08-25T08:21:30.313Z,29.30
2022-08-25T08:26:55.219Z,29.70
2022-08-25T08:31:58.412Z,29.50
2022-08-25T08:37:03.286Z,29.50
2022-08-25T08:42:22.235Z,29.00
2022-08-25T08:47:33.968Z,29.20
2022-08-25T08:52:46.122Z,29.60
2022-08-25T08:57:55.760Z,29.50
2022-08-25T09:03:06.473Z,30.20
2022-08-25T09:08:12.954Z,30.00
2022-08-25T09:13:26.392Z,29.70
2022-08-25T09:18:41.191Z,29.70
2022-08-25T09:24:14.097Z,30.90
2022-08-25T09:29:23.670Z,31.00
2022-08-25T09:34:35.130Z,30.40
2022-08-25T09:39:39.133Z,30.60
2022-08-25T09:44:44.525Z,30.50
2022-08-25T09:49:51.287Z,31.30
2022-08-25T09:54:56.043Z,32.40
2022-08-25T10:00:10.515Z,30.90
2022-08-25T10:05:24.458Z,31.30
2022-08-25T10:10:32.232Z,31.20
2022-08-25T10:15:38.846Z,32.60
2022-08-25T10:20:44.584Z,31.40
2022-08-25T10:25:57.616Z,31.30
2022-08-25T10:31:10.886Z,31.60
2022-08-25T10:36:21.425Z,32.40
2022-08-25T10:41:46.899Z,32.40
2022-08-25T10:46:58.330Z,33.00
2022-08-25T10:52:08.822Z,33.60
2022-08-25T10:57:21.398Z,32.90
2022-08-25T11:03:04.301Z,31.90
2022-08-25T11:08:15.573Z,31.10
2022-08-25T11:13:26.292Z,30.80
2022-08-25T11:18:31.967Z,30.70
2022-08-25T11:23:40.881Z,30.90
2022-08-25T11:28:55.403Z,30.70
2022-08-25T11:34:00.826Z,31.50
2022-08-25T11:39:17.314Z,31.70
2022-08-25T11:44:39.226Z,33.30
2022-08-25T11:50:00.601Z,32.10
2022-08-25T11:55:12.068Z,31.60
2022-08-25T12:00:36.663Z,31.40
2022-08-25T12:06:13.853Z,31.30
2022-08-25T12:11:49.362Z,32.70
2022-08-25T12:17:12.166Z,31.50
2022-08-25T12:22:51.674Z,30.80
2022-08-25T12:28:09.214Z,30.00
2022-08-25T12:33:21.192Z,29.90
2022-08-25T12:38:33.036Z,30.00
2022-08-25T12:43:43.381Z,29.90
2022-08-25T12:48:58.092Z,29.60
2022-08-25T12:54:18.930Z,29.40
2022-08-25T12:59:32.692Z,29.50
2022-08-25T13:05:11.709Z,29.20
2022-08-25T13:10:35.138Z,29.30
2022-08-25T13:15:45.221Z,29.40
2022-08-25T13:20:54.002Z,29.60
2022-08-25T13:25:58.641Z,29.60
2022-08-25T13:31:09.013Z,29.60
2022-08-25T13:36:36.202Z,28.90
2022-08-25T13:41:46.277Z,29.00
2022-08-25T13:47:07.248Z,28.90
2022-08-25T13:52:21.505Z,28.60
2022-08-25T13:57:33.859Z,29.00
2022-08-25T14:02:45.195Z,29.50
2022-08-25T14:08:03.791Z,29.60
2022-08-25T14:13:33.280Z,30.20
2022-08-25T14:18:39.988Z,30.60
2022-08-25T14:23:43.799Z,30.40
2022-08-25T14:28:47.271Z,30.50
2022-08-25T14:33:55.518Z,30.30
2022-08-25T14:38:59.406Z,29.60
2022-08-25T14:44:05.573Z,27.90
2022-08-25T14:49:13.865Z,25.20
2022-08-25T14:54:18.802Z,24.70
2022-08-25T14:59:22.501Z,24.50
2022-08-25T15:04:30.082Z,24.40
2022-08-25T15:09:33.863Z,23.80
2022-08-25T15:14:37.226Z,23.30
2022-08-25T15:19:45.945Z,23.20
2022-08-25T15:24:49.360Z,23.30
2022-08-25T15:29:52.863Z,23.80
2022-08-25T15:34:59.479Z,25.60
2022-08-25T15:40:03.721Z,24.30
2022-08-25T15:45:12.084Z,24.60
2022-08-25T15:50:24.158Z,25.10
2022-08-25T15:55:29.462Z,25.30
2022-08-25T16:00:32.941Z,25.10
2022-08-25T16:05:38.263Z,25.10
2022-08-25T16:10:44.393Z,25.10
2022-08-25T16:15:54.256Z,25.00
2022-08-25T16:20:59.298Z,24.90
2022-08-25T16:26:06.714Z,24.90
2022-08-25T16:31:12.337Z,24.80
2022-08-25T16:36:19.277Z,24.80
2022-08-25T16:41:27.233Z,24.60
2022-08-25T16:46:31.265Z,24.70
2022-08-25T16:51:38.666Z,24.70
2022-08-25T16:56:42.742Z,24.60
2022-08-25T17:01:46.655Z,24.70
2022-08-25T17:06:51.670Z,24.50
2022-08-25T17:11:57.308Z,24.70
2022-08-25T17:17:00.707Z,24.60
2022-08-25T17:22:08.215Z,24.50
2022-08-25T17:27:13.199Z,24.50
2022-08-25T17:32:16.967Z,24.20
2022-08-25T17:37:22.238Z,24.30
2022-08-25T17:42:25.642Z,24.50
2022-08-25T17:47:33.793Z,24.40
2022-08-25T17:52:39.460Z,24.10
2022-08-25T17:57:42.925Z,24.00
2022-08-25T18:02:47.071Z,24.10
2022-08-25T18:07:51.926Z,23.80
2022-08-25T18:12:57.358Z,23.70
2022-08-25T18:18:00.792Z,23.80
2022-08-25T18:23:09.912Z,23.50
2022-08-25T18:28:13.662Z,23.50
2022-08-25T18:33:19.054Z,18.70
2022-08-25T18:38:42.879Z,23.50
2022-08-25T18:43:46.756Z,23.50
2022-08-25T18:48:53.017Z,23.50
2022-08-25T18:54:00.961Z,23.40
2022-08-25T18:59:04.896Z,23.30
2022-08-25T19:04:10.058Z,23.40
2022-08-25T19:09:15.871Z,23.60
2022-08-25T19:14:19.387Z,23.50
2022-08-25T19:19:22.783Z,23.30
2022-08-25T19:24:28.334Z,23.30
2022-08-25T19:29:32.594Z,23.00
2022-08-25T19:34:42.055Z,22.70
2022-08-25T19:39:53.133Z,22.50
2022-08-25T19:44:59.638Z,22.50
2022-08-25T19:50:03.181Z,22.20
2022-08-25T19:55:09.011Z,22.00
2022-08-25T20:00:17.592Z,21.90
2022-08-25T20:05:23.553Z,21.70
2022-08-25T20:10:31.739Z,21.70
2022-08-25T20:15:38.735Z,21.70
2022-08-25T20:20:42.869Z,21.60
2022-08-25T20:25:47.941Z,21.60
2022-08-25T20:30:54.058Z,21.60
2022-08-25T20:35:58.234Z,21.60
2022-08-25T20:41:03.152Z,21.60
2022-08-25T20:46:07.928Z,21.60
2022-08-25T20:51:13.070Z,21.20
2022-08-25T20:56:20.365Z,21.30
2022-08-25T21:01:37.531Z,21.30
2022-08-25T21:06:41.656Z,21.50
2022-08-25T21:11:47.193Z,21.50
2022-08-25T21:16:51.085Z,21.50
2022-08-25T21:21:59.828Z,21.40
2022-08-25T21:27:06.222Z,21.40
2022-08-25T21:32:09.976Z,21.20
2022-08-25T21:37:13.432Z,21.20
2022-08-25T21:42:18.502Z,21.10
2022-08-25T21:47:23.261Z,20.90
2022-08-25T21:52:26.899Z,20.80
2022-08-25T21:57:31.768Z,20.90
2022-08-25T22:02:35.246Z,20.60
2022-08-25T22:07:41.719Z,20.40
2022-08-25T22:12:47.446Z,20.30
2022-08-25T22:17:50.840Z,20.30
2022-08-25T22:22:54.438Z,20.50
2022-08-25T22:27:59.305Z,20.50
2022-08-25T22:33:03.364Z,20.60
2022-08-25T22:38:12.447Z,20.70
2022-08-25T22:43:17.558Z,20.40
2022-08-25T22:48:20.891Z,20.30
2022-08-25T22:53:24.481Z,20.10
2022-08-25T22:58:29.829Z,19.90
2022-08-25T23:03:33.215Z,19.60
2022-08-25T23:08:39.142Z,19.90
2022-08-25T23:13:46.583Z,20.00
2022-08-25T23:18:49.978Z,20.00
2022-08-25T23:23:53.443Z,20.00
2022-08-25T23:28:58.635Z,19.80
2022-08-25T23:34:02.811Z,19.60
2022-08-25T23:39:07.785Z,19.80
2022-08-25T23:44:17.480Z,19.70
2022-08-25T23:49:23.744Z,20.00
2022-08-25T23:54:31.018Z,19.80
2022-08-25T23:59:36.430Z,19.60
